WetterOnline ( https://www.wetteronline.de )

Wetter aktuell Wernigerode

Aktuelles Wetter: Wernigerode (240m)

6-stündlich | Neueste Meldungen
Ortszeit Temperatur Wetter
Mi, 22.05. 8:00 14.9° C leichter Regen
Mi, 22.05. 2:00 15.7° C leichter Regen
Di, 21.05. 20:00 17.6° C leichter Regen
Di, 21.05. 14:00 22.9° C wolkig
Di, 21.05. 8:00 15.5° C leicht bewölkt
Di, 21.05. 2:00 10.1° C wolkenlos
Mo, 20.05. 20:00 18.1° C wolkenlos
Mo, 20.05. 14:00 18.4° C bewölkt
Ortszeit Temperatur Wetter
Mi, 22.05. 12:30 14.6° C leichter Regen
Mi, 22.05. 12:20 14.6° C leichter Regen
Mi, 22.05. 12:10 14.7° C leichter Regen
Mi, 22.05. 12:00 14.7° C leichter Regen
Mi, 22.05. 11:50 14.7° C leichter Regen
Mi, 22.05. 11:40 14.7° C leichter Regen
Mi, 22.05. 11:30 14.8° C leichter Regen
Mi, 22.05. 11:00 15.1° C bewölkt
Mi, 22.05. 10:30 15.3° C bedeckt
Mi, 22.05. 10:00 15.2° C bedeckt
Mi, 22.05. 9:30 15.1° C bedeckt
Ortszeit Relative Feuchte Sichtweite
Mi, 22.05. 8:00 87% 30 km
Mi, 22.05. 2:00 96% 6 km
Di, 21.05. 20:00 82% 40 km
Di, 21.05. 14:00 51% >70 km
Di, 21.05. 8:00 75% 30 km
Di, 21.05. 2:00 94% 20 km
Mo, 20.05. 20:00 62% >70 km
Mo, 20.05. 14:00 63% 35 km
Ortszeit Relative Feuchte Sichtweite
Mi, 22.05. 12:30 89% 5.0 km
Mi, 22.05. 12:20 89% -
Mi, 22.05. 12:10 87% -
Mi, 22.05. 12:00 86% 11 km
Mi, 22.05. 11:50 86% -
Mi, 22.05. 11:40 87% -
Mi, 22.05. 11:30 87% 19 km
Mi, 22.05. 11:00 81% >70 km
Mi, 22.05. 10:30 82% 55 km
Mi, 22.05. 10:00 82% 65 km
Mi, 22.05. 9:30 85% >70 km
Ortszeit Niederschlagsmenge Niederschlagsart
Mi, 22.05. 8:00 9 l/m2 in 12 Std. Regen
Mi, 22.05. 2:00 6 l/m2 in 6 Std. Regen
Di, 21.05. 20:00 1 l/m2 in 12 Std. Regen
Di, 21.05. 14:00 0.1 l/m2 in 6 Std. Niederschlag
Di, 21.05. 8:00 0.0 l/m2 in 12 Std. -
Di, 21.05. 2:00 0.0 l/m2 in 6 Std. -
Mo, 20.05. 20:00 0.1 l/m2 in 12 Std. Regen
Mo, 20.05. 14:00 0.1 l/m2 in 6 Std. Regen
Ortszeit Niederschlagsmenge Niederschlagsart
Mi, 22.05. 12:30 0.6 l/m2 in 30 Min -
Mi, 22.05. 12:20 keine Meldung -
Mi, 22.05. 12:10 keine Meldung -
Mi, 22.05. 12:00 0.3 l/m2 in 1 Std. Regen
Mi, 22.05. 11:50 keine Meldung -
Mi, 22.05. 11:40 keine Meldung -
Mi, 22.05. 11:30 <0.05 l/m2 in 30 Min -
Mi, 22.05. 11:00 0.0 l/m2 in 1 Std. Regen
Mi, 22.05. 10:30 0.0 l/m2 in 30 Min -
Mi, 22.05. 10:00 0.1 l/m2 in 1 Std. Regen
Mi, 22.05. 9:30 0.1 l/m2 in 30 Min Schneeregen
Ortszeit Stärke Spitze Richtung
km/h Bft. km/h Grad Sektor
Mi, 22.05. 8:00 14 3 22 310° NW
Mi, 22.05. 2:00 9 2 41 100° O
Di, 21.05. 20:00 7 2 44 120° SO
Di, 21.05. 14:00 14 3 32 110° O
Di, 21.05. 8:00 0 0 11 - -
Di, 21.05. 2:00 4 1 11 170° S
Mo, 20.05. 20:00 2 1 15 90° O
Mo, 20.05. 14:00 4 1 18 30° NO
Ortszeit Stärke Spitze Richtung
km/h Bft. km/h Grad Sektor
Mi, 22.05. 12:30 9 2 15 310° NW
Mi, 22.05. 12:20 9 2 - 310° NW
Mi, 22.05. 12:10 7 2 - 300° NW
Mi, 22.05. 12:00 7 2 18 290° W
Mi, 22.05. 11:50 7 2 - 290° W
Mi, 22.05. 11:40 7 2 - 300° NW
Mi, 22.05. 11:30 9 2 17 320° NW
Mi, 22.05. 11:00 14 3 32 310° NW
Mi, 22.05. 10:30 14 3 32 300° NW
Mi, 22.05. 10:00 17 3 30 310° NW
Mi, 22.05. 9:30 17 3 26 310° NW
Ortszeit Untergrenze Bedeckung Gattung
total tief tief mittel hoch
Mi, 22.05. 8:00 810 m 8/8 8/8 - - -
Mi, 22.05. 2:00 90 m 8/8 8/8 - - -
Di, 21.05. 20:00 2100 m 7/8 7/8 - - -
Di, 21.05. 14:00 1200 m 7/8 1/8 - - -
Di, 21.05. 8:00 9000 m 5/8 0/8 - - -
Di, 21.05. 2:00 - 0/8 0/8 - - -
Mo, 20.05. 20:00 - 0/8 0/8 - - -
Mo, 20.05. 14:00 1050 m 8/8 7/8 - - -
Ortszeit Bedeckungsgrad in Achtel und Wolkenuntergrenze
Mi, 22.05. 12:30 4(570m) 6(1200m) 7(1410m)
Mi, 22.05. 12:20 4(570m) 6(1200m) 7(1410m)
Mi, 22.05. 12:10 7
Mi, 22.05. 12:00 3(570m) 4(720m) 8(1350m)
Mi, 22.05. 11:50 3(570m) 4(720m) 8(1350m)
Mi, 22.05. 11:40 8
Mi, 22.05. 11:30 6(570m) 8(1260m)
Mi, 22.05. 11:00 3(630m) 7(1110m)
Mi, 22.05. 10:30 2(540m) 3(690m) 8(1050m)
Mi, 22.05. 10:00 2(570m) 3(750m) 8(960m)
Mi, 22.05. 9:30 2(480m) 8(960m)
Ortszeit Luftdruck NN (hPa) Tendenz (hPa in 3 Std.)
Mi, 22.05. 8:00 1006 + 0,9
Mi, 22.05. 2:00 1005 - 0,6
Di, 21.05. 20:00 1006 - 0,4
Di, 21.05. 14:00 1008 - 1,4
Di, 21.05. 8:00 1011 - 0,4
Di, 21.05. 2:00 1012 - 0,1
Mo, 20.05. 20:00 1011 - 0,1
Mo, 20.05. 14:00 1012 + 0,1
Ortszeit Luftdruck NN (hPa) Tendenz (hPa in 3 Std.)
Mi, 22.05. 12:30 1008 + 1,9
Mi, 22.05. 12:20 1008 keine Meldung
Mi, 22.05. 12:10 1008 keine Meldung
Mi, 22.05. 12:00 1008 + 1,7
Mi, 22.05. 11:50 1008 keine Meldung
Mi, 22.05. 11:40 1008 keine Meldung
Mi, 22.05. 11:30 1008 + 1,8
Mi, 22.05. 11:00 1007 + 1,6
Mi, 22.05. 10:30 1007 + 1,3
Mi, 22.05. 10:00 1007 + 1,6
Mi, 22.05. 9:30 1006 + 0,9
Ortszeit Schneehöhe (cm)
Mi, 22.05. 8:00 0
Mi, 22.05. 2:00 0
Di, 21.05. 20:00 0
Di, 21.05. 14:00 0
Di, 21.05. 8:00 0
Di, 21.05. 2:00 0
Mo, 20.05. 20:00 0
Mo, 20.05. 14:00 0
Ortszeit Schneehöhe (cm)
Mi, 22.05. 12:30 0
Mi, 22.05. 12:20 0
Mi, 22.05. 12:10 -
Mi, 22.05. 12:00 0
Mi, 22.05. 11:50 0
Mi, 22.05. 11:40 -
Mi, 22.05. 11:30 0
Mi, 22.05. 11:00 0
Mi, 22.05. 10:30 0
Mi, 22.05. 10:00 0
Mi, 22.05. 9:30 0
Link zu dieser Seite / Seite empfehlen

Das Wetter in ...